KMYR/MYR METAR and TAF weather

Enter ICAO airport designator
Station Type Date Time Source
KMYR METAR 2019/02/18 03:56 UTC NOAA

KMYR 180356Z 15008KT 10SM OVC006 12/11 A2993 RMK AO2 SLP136 T01220111


Station Type Date Time Source
KMYR Decoded METAR 2019/02/18 03:56 UTC NOAA

Myrtle Beach Air Force Base, SC, United States (KMYR) 33-41N 078-56W 8M
Feb 17, 2019 - 10:56 PM EST / 2019.02.18 0356 UTC
Wind: from the SSE (150 degrees) at 9 MPH (8 KT):0
Visibility: 10 mile(s):0
Sky conditions: overcast
Temperature: 54.0 F (12.2 C)
Dew Point: 52.0 F (11.1 C)
Relative Humidity: 92%
Pressure (altimeter): 29.93 in. Hg (1013 hPa)
ob: KMYR 180356Z 15008KT 10SM OVC006 12/11 A2993 RMK AO2 SLP136 T01220111
cycle: 4

Station Type Date Time Source
KMYR TAF 2019/02/17 18:22 UTC NOAA

TAF KMYR 171720Z 1718/1818 05006KT P6SM OVC010
FM172200 07005KT P6SM OVC009
FM180000 18005KT 5SM BR OVC006
FM180200 20003KT 2SM BR OVC004
FM181400 25009KT 6SM BR OVC006


Example: see airport list